createdAt,value
2018-09-15T00:01:43.116Z,16.17
2018-09-15T00:04:11.256Z,15.10
2018-09-15T00:06:39.401Z,16.23
2018-09-15T00:09:08.448Z,16.57
2018-09-15T00:11:36.602Z,16.67
2018-09-15T00:14:04.738Z,15.27
2018-09-15T00:16:33.007Z,15.27
2018-09-15T00:19:01.235Z,13.73
2018-09-15T00:21:29.424Z,14.37
2018-09-15T00:23:57.591Z,15.73
2018-09-15T00:26:25.831Z,13.10
2018-09-15T00:28:54.111Z,13.83
2018-09-15T00:31:22.258Z,14.77
2018-09-15T00:33:50.407Z,15.77
2018-09-15T00:36:18.654Z,14.73
2018-09-15T00:38:47.106Z,15.37
2018-09-15T00:41:15.228Z,15.73
2018-09-15T00:43:43.467Z,14.73
2018-09-15T00:46:11.639Z,16.40
2018-09-15T00:48:39.953Z,17.20
2018-09-15T00:51:08.134Z,16.93
2018-09-15T00:53:36.323Z,17.40
2018-09-15T00:56:04.490Z,17.13
2018-09-15T00:58:32.682Z,16.37
2018-09-15T01:01:00.855Z,18.13
2018-09-15T01:03:28.994Z,17.93
2018-09-15T01:05:57.114Z,17.30
2018-09-15T01:08:25.285Z,17.80
2018-09-15T01:10:53.414Z,18.27
2018-09-15T01:13:21.556Z,18.43
2018-09-15T01:15:49.727Z,18.50
2018-09-15T01:18:17.876Z,18.53
2018-09-15T01:20:46.035Z,17.17
2018-09-15T01:23:14.199Z,17.73
2018-09-15T01:25:42.326Z,16.70
2018-09-15T01:28:10.470Z,19.40
2018-09-15T01:30:38.599Z,17.20
2018-09-15T01:33:07.050Z,17.23
2018-09-15T01:35:35.201Z,18.67
2018-09-15T01:38:03.381Z,21.50
2018-09-15T01:40:32.326Z,19.37
2018-09-15T01:43:00.601Z,18.20
2018-09-15T01:45:28.792Z,17.33
2018-09-15T01:47:56.965Z,16.17
2018-09-15T01:50:25.237Z,18.20
2018-09-15T01:52:53.421Z,21.67
2018-09-15T01:55:21.602Z,17.43
2018-09-15T01:57:49.786Z,17.93
2018-09-15T02:00:17.942Z,17.97
2018-09-15T02:02:46.122Z,17.80
2018-09-15T02:05:14.282Z,20.27
2018-09-15T02:07:42.454Z,17.93
2018-09-15T02:10:10.609Z,18.67
2018-09-15T02:12:38.518Z,18.80
2018-09-15T02:15:06.969Z,17.17
2018-09-15T02:17:35.118Z,18.07
2018-09-15T02:20:03.036Z,18.30
2018-09-15T02:22:31.212Z,19.93
2018-09-15T02:24:59.349Z,16.70
2018-09-15T02:27:27.482Z,17.50
2018-09-15T02:29:55.676Z,20.13
2018-09-15T02:32:23.834Z,18.63
2018-09-15T02:34:51.977Z,17.40
2018-09-15T02:37:20.142Z,18.23
2018-09-15T02:39:48.295Z,17.80
2018-09-15T02:42:16.417Z,18.93
2018-09-15T02:44:44.538Z,20.53
2018-09-15T02:47:12.709Z,18.73
2018-09-15T02:49:40.845Z,23.73
2018-09-15T02:52:09.012Z,24.10
2018-09-15T02:54:37.282Z,22.50
2018-09-15T02:57:05.247Z,19.83
2018-09-15T02:59:33.382Z,19.33
2018-09-15T03:02:01.962Z,22.47
2018-09-15T03:04:30.183Z,18.33
2018-09-15T03:06:58.334Z,21.23
2018-09-15T03:09:26.470Z,19.20
2018-09-15T03:11:54.681Z,22.23
2018-09-15T03:14:23.205Z,21.60
2018-09-15T03:16:51.342Z,19.27
2018-09-15T03:19:19.521Z,23.13
2018-09-15T03:21:47.676Z,19.43
2018-09-15T03:24:15.815Z,20.27
2018-09-15T03:26:43.954Z,18.70
2018-09-15T03:29:12.553Z,19.67
2018-09-15T03:31:41.158Z,22.30
2018-09-15T03:34:09.302Z,20.80
2018-09-15T03:36:37.445Z,20.33
2018-09-15T03:39:08.026Z,18.17
2018-09-15T03:41:36.564Z,20.73
2018-09-15T03:44:04.674Z,20.33
2018-09-15T03:46:32.675Z,20.50
2018-09-15T03:49:00.832Z,23.17
2018-09-15T03:51:28.994Z,21.23
2018-09-15T03:53:57.285Z,21.23
2018-09-15T03:56:25.490Z,18.63
2018-09-15T03:58:53.629Z,17.27
2018-09-15T04:01:21.760Z,18.57
2018-09-15T04:03:49.950Z,18.80
2018-09-15T04:06:18.080Z,18.00
2018-09-15T04:08:46.313Z,20.07
2018-09-15T04:11:14.534Z,23.73
2018-09-15T04:13:42.769Z,21.00
2018-09-15T04:16:11.669Z,24.00
2018-09-15T04:18:39.845Z,22.90
2018-09-15T04:21:08.394Z,18.10
2018-09-15T04:23:36.587Z,19.93
2018-09-15T04:26:04.784Z,22.57
2018-09-15T04:28:33.011Z,19.57
2018-09-15T04:31:01.094Z,21.37
2018-09-15T04:33:29.278Z,19.67
2018-09-15T04:35:57.454Z,17.53
2018-09-15T04:38:25.687Z,20.57
2018-09-15T04:40:53.601Z,18.20
2018-09-15T04:43:21.869Z,16.17
2018-09-15T04:45:50.025Z,17.93
2018-09-15T04:48:18.174Z,15.43
2018-09-15T04:50:46.338Z,19.73
2018-09-15T04:53:14.491Z,17.27
2018-09-15T04:55:42.646Z,18.57
2018-09-15T04:58:10.823Z,17.37
2018-09-15T05:00:39.365Z,13.90
2018-09-15T05:03:07.529Z,12.43
2018-09-15T05:05:35.673Z,13.47
2018-09-15T05:08:03.819Z,14.50
2018-09-15T05:10:31.965Z,13.90
2018-09-15T05:13:00.466Z,13.83
2018-09-15T05:15:28.565Z,14.60
2018-09-15T05:17:56.708Z,15.13
2018-09-15T05:20:25.097Z,13.17
2018-09-15T05:22:53.268Z,12.87
2018-09-15T05:25:21.478Z,13.27
2018-09-15T05:27:49.633Z,12.03
2018-09-15T05:30:17.862Z,15.27
2018-09-15T05:32:45.813Z,16.33
2018-09-15T05:35:14.017Z,13.57
2018-09-15T05:37:42.172Z,12.57
2018-09-15T05:40:10.329Z,13.13
2018-09-15T05:42:38.523Z,13.43
2018-09-15T05:45:06.778Z,12.93
2018-09-15T05:47:34.930Z,13.33
2018-09-15T05:50:03.071Z,13.57
2018-09-15T05:52:31.197Z,14.30
2018-09-15T05:54:59.416Z,17.03
2018-09-15T05:57:27.586Z,12.63
2018-09-15T05:59:55.730Z,13.00
2018-09-15T06:02:23.922Z,13.03
2018-09-15T06:04:52.082Z,11.80
2018-09-15T06:07:20.274Z,13.17
2018-09-15T06:09:48.412Z,12.07
2018-09-15T06:12:16.585Z,12.40
2018-09-15T06:14:44.747Z,13.53
2018-09-15T06:17:12.900Z,13.87
2018-09-15T06:19:41.046Z,12.53
2018-09-15T06:22:09.198Z,12.27
2018-09-15T06:24:37.389Z,11.53
2018-09-15T06:27:06.095Z,11.80
2018-09-15T06:29:34.354Z,11.77
2018-09-15T06:32:02.746Z,13.37
2018-09-15T06:34:30.950Z,13.30
2018-09-15T06:36:59.142Z,10.70
2018-09-15T06:39:27.353Z,13.17
2018-09-15T06:41:55.441Z,11.60
2018-09-15T06:44:23.593Z,11.27
2018-09-15T06:46:51.754Z,16.50
2018-09-15T06:49:19.873Z,11.13
2018-09-15T06:51:48.034Z,12.87
2018-09-15T06:54:16.215Z,11.73
2018-09-15T06:56:44.353Z,13.30
2018-09-15T06:59:12.590Z,12.17
2018-09-15T07:01:41.257Z,11.47
2018-09-15T07:04:11.095Z,11.20
2018-09-15T07:06:39.363Z,10.80
2018-09-15T07:09:09.237Z,14.23
2018-09-15T07:11:37.469Z,11.90
2018-09-15T07:14:05.637Z,18.37
2018-09-15T07:16:34.416Z,14.13
2018-09-15T07:19:02.617Z,14.10
2018-09-15T07:21:30.797Z,14.47
2018-09-15T07:23:58.821Z,13.67
2018-09-15T07:26:26.977Z,16.60
2018-09-15T07:28:55.361Z,13.53
2018-09-15T07:31:23.545Z,12.83
2018-09-15T07:33:51.649Z,17.53
2018-09-15T07:36:19.803Z,15.00
2018-09-15T07:38:47.713Z,13.67
2018-09-15T07:41:15.869Z,15.23
2018-09-15T07:43:44.030Z,18.53
2018-09-15T07:46:12.177Z,19.33
2018-09-15T07:48:40.105Z,19.97
2018-09-15T07:51:08.246Z,20.70
2018-09-15T07:53:36.510Z,15.97
2018-09-15T07:56:04.657Z,19.07
2018-09-15T07:58:33.036Z,19.63
2018-09-15T08:01:01.173Z,16.87
2018-09-15T08:03:29.325Z,21.27
2018-09-15T08:05:57.261Z,14.83
2018-09-15T08:08:25.440Z,16.63
2018-09-15T08:10:53.607Z,12.53
2018-09-15T08:13:21.761Z,16.50
2018-09-15T08:15:49.909Z,13.93
2018-09-15T08:18:18.054Z,14.67
2018-09-15T08:20:46.258Z,13.90
2018-09-15T08:23:14.395Z,13.63
2018-09-15T08:25:42.533Z,10.40
2018-09-15T08:28:10.674Z,13.13
2018-09-15T08:30:38.825Z,14.90
2018-09-15T08:33:06.978Z,13.33
2018-09-15T08:35:35.153Z,12.07
2018-09-15T08:38:03.379Z,6.70
2018-09-15T08:40:31.283Z,8.60
2018-09-15T08:42:59.466Z,13.60
2018-09-15T08:45:27.788Z,12.27
2018-09-15T08:47:55.728Z,9.93
2018-09-15T08:50:23.890Z,10.73
2018-09-15T08:52:52.057Z,6.27
2018-09-15T08:55:20.210Z,8.10
2018-09-15T08:57:48.342Z,7.23
2018-09-15T09:00:16.294Z,6.40
2018-09-15T09:02:44.426Z,6.97
2018-09-15T09:05:12.605Z,7.37
2018-09-15T09:07:40.740Z,6.80
2018-09-15T09:10:08.940Z,5.63
2018-09-15T09:12:37.049Z,8.07
2018-09-15T09:15:05.227Z,8.97
2018-09-15T09:17:33.370Z,10.70
2018-09-15T09:20:01.792Z,7.00
2018-09-15T09:22:29.722Z,9.80
2018-09-15T09:24:57.858Z,9.67
2018-09-15T09:27:26.010Z,7.07
2018-09-15T09:29:54.167Z,8.70
2018-09-15T09:32:22.368Z,7.27
2018-09-15T09:34:50.449Z,9.33
2018-09-15T09:37:18.609Z,6.17
2018-09-15T09:39:46.768Z,4.90
2018-09-15T09:42:14.920Z,8.37
2018-09-15T09:44:43.126Z,7.60
2018-09-15T09:47:11.263Z,7.07
2018-09-15T09:49:39.398Z,5.20
2018-09-15T09:52:07.342Z,7.37
2018-09-15T09:54:35.506Z,7.03
2018-09-15T09:57:03.719Z,6.87
2018-09-15T09:59:31.955Z,3.50
2018-09-15T10:02:02.628Z,5.90
2018-09-15T10:04:31.642Z,4.80
2018-09-15T10:06:59.861Z,6.10
2018-09-15T10:09:28.198Z,4.53
2018-09-15T10:11:56.362Z,4.63
2018-09-15T10:14:24.621Z,4.03
2018-09-15T10:16:52.865Z,6.23
2018-09-15T10:19:21.113Z,4.27
2018-09-15T10:21:49.655Z,6.90
2018-09-15T10:24:17.914Z,4.53
2018-09-15T10:26:46.125Z,3.80
2018-09-15T10:29:14.273Z,5.50
2018-09-15T10:31:42.423Z,3.67
2018-09-15T10:34:10.609Z,5.33
2018-09-15T10:36:38.779Z,7.30
2018-09-15T10:39:08.470Z,4.87
2018-09-15T10:41:36.634Z,5.80
2018-09-15T10:44:05.102Z,4.97
2018-09-15T10:46:33.637Z,4.30
2018-09-15T10:49:01.861Z,4.87
2018-09-15T10:51:30.108Z,4.00
2018-09-15T10:53:58.529Z,3.00
2018-09-15T10:56:26.819Z,4.77
2018-09-15T10:58:55.522Z,3.40
2018-09-15T11:01:23.621Z,6.03
2018-09-15T11:03:51.796Z,6.17
2018-09-15T11:06:19.972Z,5.57
2018-09-15T11:08:47.880Z,6.70
2018-09-15T11:11:16.063Z,4.17
2018-09-15T11:13:44.334Z,3.30
2018-09-15T11:16:12.411Z,3.13
2018-09-15T11:18:40.598Z,3.23
2018-09-15T11:21:08.767Z,6.00
2018-09-15T11:23:36.905Z,4.80
2018-09-15T11:26:05.058Z,5.47
2018-09-15T11:28:33.213Z,3.87
2018-09-15T11:31:01.350Z,4.00
2018-09-15T11:33:29.532Z,5.33
2018-09-15T11:35:57.666Z,3.07
2018-09-15T11:38:25.826Z,5.53
2018-09-15T11:40:53.978Z,3.97
2018-09-15T11:43:22.258Z,4.13
2018-09-15T11:45:50.396Z,4.10
2018-09-15T11:48:18.560Z,3.93
2018-09-15T11:50:46.788Z,3.37
2018-09-15T11:53:14.953Z,4.97
2018-09-15T11:55:43.129Z,5.20
2018-09-15T11:58:11.263Z,7.00
2018-09-15T12:00:42.601Z,5.37
2018-09-15T12:03:10.745Z,2.83
2018-09-15T12:05:38.890Z,4.03
2018-09-15T12:08:07.046Z,4.20
2018-09-15T12:10:35.263Z,2.80
2018-09-15T12:13:03.402Z,2.70
2018-09-15T12:15:31.543Z,5.30
2018-09-15T12:17:59.682Z,3.63
2018-09-15T12:20:27.837Z,4.30
2018-09-15T12:22:56.005Z,2.33
2018-09-15T12:25:24.130Z,3.50
2018-09-15T12:27:52.351Z,3.50
2018-09-15T12:30:20.461Z,2.53
2018-09-15T12:32:48.605Z,4.07
2018-09-15T12:35:16.817Z,3.47
2018-09-15T12:37:44.963Z,2.47
2018-09-15T12:40:13.099Z,3.63
2018-09-15T12:42:41.232Z,3.30
2018-09-15T12:45:09.428Z,2.90
2018-09-15T12:47:37.567Z,2.67
2018-09-15T12:50:05.754Z,4.07
2018-09-15T12:52:33.909Z,3.20
2018-09-15T12:55:02.033Z,4.57
2018-09-15T12:57:30.181Z,4.80
2018-09-15T12:59:58.292Z,4.03
2018-09-15T13:02:26.409Z,3.83
2018-09-15T13:04:54.549Z,2.60
2018-09-15T13:07:22.715Z,2.50
2018-09-15T13:09:50.890Z,4.13
2018-09-15T13:12:19.219Z,3.30
2018-09-15T13:14:47.288Z,2.40
2018-09-15T13:17:15.388Z,2.00
2018-09-15T13:19:43.525Z,8.00
2018-09-15T13:22:11.649Z,9.87
2018-09-15T13:24:39.812Z,2.83
2018-09-15T13:27:07.933Z,4.93
2018-09-15T13:29:36.172Z,5.17
2018-09-15T13:32:04.218Z,3.87
2018-09-15T13:34:32.401Z,3.47
2018-09-15T13:37:00.561Z,2.87
2018-09-15T13:39:28.721Z,4.37
2018-09-15T13:41:56.848Z,2.83
2018-09-15T13:44:25.045Z,5.17
2018-09-15T13:46:53.245Z,2.60
2018-09-15T13:49:21.410Z,3.70
2018-09-15T13:51:49.566Z,4.50
2018-09-15T13:54:17.993Z,4.33
2018-09-15T13:56:46.241Z,2.40
2018-09-15T13:59:14.366Z,3.60
2018-09-15T14:01:42.498Z,3.03
2018-09-15T14:04:10.765Z,3.20
2018-09-15T14:06:38.903Z,4.30
2018-09-15T14:09:08.482Z,3.67
2018-09-15T14:11:36.662Z,3.57
2018-09-15T14:14:05.040Z,3.23
2018-09-15T14:16:33.207Z,4.57
2018-09-15T14:19:01.366Z,2.63
2018-09-15T14:21:29.534Z,3.83
2018-09-15T14:23:57.671Z,4.07
2018-09-15T14:26:25.930Z,2.67
2018-09-15T14:28:54.086Z,3.10
2018-09-15T14:31:22.395Z,2.87
2018-09-15T14:33:50.438Z,4.17
2018-09-15T14:36:18.578Z,4.50
2018-09-15T14:38:46.819Z,2.70
2018-09-15T14:41:14.933Z,3.00
2018-09-15T14:43:43.115Z,4.93
2018-09-15T14:46:11.301Z,3.63
2018-09-15T14:48:39.482Z,4.67
2018-09-15T14:51:07.646Z,3.70
2018-09-15T14:53:36.838Z,3.40
2018-09-15T14:56:04.983Z,3.90
2018-09-15T14:58:33.138Z,6.17
2018-09-15T15:01:01.277Z,2.63
2018-09-15T15:03:29.424Z,3.58
2018-09-15T15:05:57.616Z,3.53
2018-09-15T15:08:25.753Z,4.53
2018-09-15T15:10:53.976Z,3.37
2018-09-15T15:13:22.117Z,3.70
2018-09-15T15:15:50.650Z,3.40
2018-09-15T15:18:18.941Z,4.43
2018-09-15T15:20:47.242Z,4.43
2018-09-15T15:23:15.369Z,4.60
2018-09-15T15:25:43.521Z,4.10
2018-09-15T15:28:11.689Z,4.27
2018-09-15T15:30:39.886Z,3.17
2018-09-15T15:33:08.282Z,3.43
2018-09-15T15:35:36.740Z,3.00
2018-09-15T15:38:05.845Z,2.67
2018-09-15T15:40:34.297Z,4.83
2018-09-15T15:43:02.445Z,2.70
2018-09-15T15:45:30.659Z,2.30
2018-09-15T15:47:58.849Z,3.20
2018-09-15T15:50:27.010Z,3.17
2018-09-15T15:52:55.161Z,3.27
2018-09-15T15:55:23.311Z,2.57
2018-09-15T15:57:51.588Z,2.83
2018-09-15T16:00:19.907Z,3.97
2018-09-15T16:02:48.001Z,4.57
2018-09-15T16:05:16.140Z,4.40
2018-09-15T16:07:44.294Z,2.57
2018-09-15T16:10:12.449Z,3.67
2018-09-15T16:12:40.602Z,3.33
2018-09-15T16:15:08.507Z,5.73
2018-09-15T16:17:36.694Z,2.70
2018-09-15T16:20:04.839Z,4.10
2018-09-15T16:22:32.973Z,3.93
2018-09-15T16:25:01.134Z,5.20
2018-09-15T16:27:29.318Z,2.70
2018-09-15T16:29:57.539Z,3.50
2018-09-15T16:32:25.678Z,3.27
2018-09-15T16:34:53.821Z,4.13
2018-09-15T16:37:21.966Z,5.97
2018-09-15T16:39:50.265Z,6.00
2018-09-15T16:42:18.443Z,3.33
2018-09-15T16:44:46.602Z,4.87
2018-09-15T16:47:14.751Z,3.50
2018-09-15T16:49:42.886Z,4.97
2018-09-15T16:52:11.038Z,3.93
2018-09-15T16:54:39.157Z,5.57
2018-09-15T16:57:07.835Z,3.47
2018-09-15T16:59:35.822Z,2.90
2018-09-15T17:02:03.949Z,3.17
2018-09-15T17:04:32.434Z,3.97
2018-09-15T17:07:00.559Z,4.13
2018-09-15T17:09:28.702Z,5.93
2018-09-15T17:11:56.833Z,6.17
2018-09-15T17:14:25.009Z,7.60
2018-09-15T17:16:53.130Z,4.03
2018-09-15T17:19:21.358Z,4.53
2018-09-15T17:21:49.494Z,5.07
2018-09-15T17:24:17.714Z,13.90
2018-09-15T17:26:45.893Z,6.97
2018-09-15T17:29:14.041Z,3.53
2018-09-15T17:31:42.227Z,4.77
2018-09-15T17:34:11.378Z,4.27
2018-09-15T17:36:39.529Z,4.53
2018-09-15T17:39:09.357Z,8.03
2018-09-15T17:41:37.502Z,7.53
2018-09-15T17:44:06.551Z,5.73
2018-09-15T17:46:34.693Z,4.13
2018-09-15T17:49:02.821Z,7.80
2018-09-15T17:51:30.986Z,6.43
2018-09-15T17:53:59.160Z,5.87
2018-09-15T17:56:27.419Z,6.27
2018-09-15T17:58:55.542Z,5.37
2018-09-15T18:01:23.674Z,8.17
2018-09-15T18:03:51.813Z,6.63
2018-09-15T18:06:19.945Z,9.13
2018-09-15T18:08:48.111Z,6.13
2018-09-15T18:11:16.239Z,6.70
2018-09-15T18:13:44.378Z,9.33
2018-09-15T18:16:12.528Z,4.47
2018-09-15T18:18:40.686Z,5.40
2018-09-15T18:21:08.841Z,6.63
2018-09-15T18:23:36.981Z,6.23
2018-09-15T18:26:05.129Z,13.30
2018-09-15T18:28:33.261Z,6.87
2018-09-15T18:31:01.497Z,6.13
2018-09-15T18:33:29.735Z,5.43
2018-09-15T18:35:57.900Z,6.00
2018-09-15T18:38:26.030Z,5.37
2018-09-15T18:40:54.159Z,8.10
2018-09-15T18:43:22.305Z,6.43
2018-09-15T18:45:50.445Z,7.20
2018-09-15T18:48:18.651Z,5.97
2018-09-15T18:50:46.835Z,4.03
2018-09-15T18:53:14.913Z,6.00
2018-09-15T18:55:43.074Z,4.37
2018-09-15T18:58:11.226Z,6.53
2018-09-15T19:00:39.353Z,7.67
2018-09-15T19:03:10.327Z,9.50
2018-09-15T19:05:38.462Z,6.17
2018-09-15T19:08:06.609Z,4.00
2018-09-15T19:10:34.870Z,7.40
2018-09-15T19:13:02.994Z,6.20
2018-09-15T19:15:31.141Z,6.57
2018-09-15T19:17:59.341Z,5.30
2018-09-15T19:20:27.489Z,4.83
2018-09-15T19:22:55.622Z,5.87
2018-09-15T19:25:23.765Z,8.07
2018-09-15T19:27:51.878Z,6.83
2018-09-15T19:30:20.058Z,8.10
2018-09-15T19:32:48.312Z,7.13
2018-09-15T19:35:16.386Z,6.67
2018-09-15T19:37:44.530Z,7.53
2018-09-15T19:40:12.655Z,7.07
2018-09-15T19:42:40.821Z,7.60
2018-09-15T19:45:09.818Z,13.53
2018-09-15T19:47:37.946Z,6.03
2018-09-15T19:50:06.062Z,7.30
2018-09-15T19:52:34.443Z,7.97
2018-09-15T19:55:02.547Z,10.47
2018-09-15T19:57:30.769Z,6.77
2018-09-15T19:59:58.970Z,9.20
2018-09-15T20:02:27.716Z,7.93
2018-09-15T20:04:56.331Z,7.27
2018-09-15T20:07:24.418Z,11.03
2018-09-15T20:09:52.539Z,10.87
2018-09-15T20:12:20.673Z,8.03
2018-09-15T20:14:48.569Z,10.27
2018-09-15T20:17:15.785Z,7.00
2018-09-15T20:19:42.951Z,7.73
2018-09-15T20:22:11.078Z,7.33
2018-09-15T20:24:39.431Z,8.53
2018-09-15T20:27:07.666Z,9.67
2018-09-15T20:29:35.785Z,7.77
2018-09-15T20:32:03.950Z,10.27
2018-09-15T20:34:32.078Z,9.27
2018-09-15T20:37:00.215Z,9.93
2018-09-15T20:39:28.337Z,10.83
2018-09-15T20:41:56.452Z,13.03
2018-09-15T20:44:24.701Z,11.30
2018-09-15T20:46:52.847Z,11.13
2018-09-15T20:49:20.982Z,7.40
2018-09-15T20:51:49.124Z,9.40
2018-09-15T20:54:17.250Z,7.23
2018-09-15T20:56:45.373Z,9.20
2018-09-15T20:59:13.568Z,7.77
2018-09-15T21:01:41.708Z,8.03
2018-09-15T21:04:09.640Z,8.20
2018-09-15T21:06:37.778Z,7.07
2018-09-15T21:09:08.654Z,7.90
2018-09-15T21:11:36.845Z,10.47
2018-09-15T21:14:04.979Z,8.77
2018-09-15T21:16:33.379Z,8.40
2018-09-15T21:19:01.532Z,10.33
2018-09-15T21:21:29.678Z,8.83
2018-09-15T21:23:57.801Z,12.93
2018-09-15T21:26:25.913Z,12.97
2018-09-15T21:28:54.086Z,8.73
2018-09-15T21:31:21.977Z,9.57
2018-09-15T21:33:50.098Z,8.00
2018-09-15T21:36:18.002Z,8.37
2018-09-15T21:38:46.189Z,7.57
2018-09-15T21:41:14.336Z,10.37
2018-09-15T21:43:42.477Z,10.00
2018-09-15T21:46:10.706Z,7.37
2018-09-15T21:48:38.812Z,9.30
2018-09-15T21:51:06.721Z,8.70
2018-09-15T21:53:35.113Z,9.17
2018-09-15T21:56:03.198Z,11.53
2018-09-15T21:58:31.361Z,9.50
2018-09-15T22:01:03.205Z,7.50
2018-09-15T22:03:35.815Z,9.20
2018-09-15T22:06:04.281Z,10.03
2018-09-15T22:08:32.177Z,9.63
2018-09-15T22:11:00.311Z,8.23
2018-09-15T22:13:28.455Z,8.13
2018-09-15T22:15:56.649Z,8.63
2018-09-15T22:18:24.754Z,10.50
2018-09-15T22:20:52.934Z,15.37
2018-09-15T22:23:21.082Z,9.73
2018-09-15T22:25:49.249Z,10.67
2018-09-15T22:28:17.438Z,9.53
2018-09-15T22:30:45.598Z,9.30
2018-09-15T22:33:13.758Z,12.07
2018-09-15T22:35:41.918Z,9.70
2018-09-15T22:38:10.084Z,9.23
2018-09-15T22:40:38.248Z,9.53
2018-09-15T22:43:06.390Z,9.13
2018-09-15T22:45:34.514Z,8.73
2018-09-15T22:48:02.638Z,8.50
2018-09-15T22:50:30.782Z,9.87
2018-09-15T22:52:58.893Z,8.83
2018-09-15T22:55:27.161Z,8.70
2018-09-15T22:57:56.014Z,12.23
2018-09-15T23:00:24.145Z,10.07
2018-09-15T23:02:52.409Z,11.73
2018-09-15T23:05:20.694Z,8.53
2018-09-15T23:07:49.052Z,8.40
2018-09-15T23:10:17.727Z,11.63
2018-09-15T23:12:45.962Z,8.67
2018-09-15T23:15:14.118Z,8.43
2018-09-15T23:17:42.411Z,11.77
2018-09-15T23:20:10.554Z,8.90
2018-09-15T23:22:38.683Z,7.87
2018-09-15T23:25:06.814Z,8.70
2018-09-15T23:27:34.960Z,10.77
2018-09-15T23:30:03.124Z,8.50
2018-09-15T23:32:31.301Z,8.40
2018-09-15T23:34:59.418Z,8.53
2018-09-15T23:37:27.333Z,8.70
2018-09-15T23:39:55.461Z,8.57
2018-09-15T23:42:23.598Z,11.30
2018-09-15T23:44:51.717Z,7.77
2018-09-15T23:47:19.837Z,9.97
2018-09-15T23:49:47.989Z,9.37
2018-09-15T23:52:16.119Z,8.50
2018-09-15T23:54:44.027Z,8.80
2018-09-15T23:57:12.159Z,9.30
2018-09-15T23:59:40.280Z,8.77
